createdAt,value
2022-11-24T00:01:59.938Z,16.37
2022-11-24T00:04:48.451Z,16.30
2022-11-24T00:07:35.452Z,14.33
2022-11-24T00:10:22.440Z,17.57
2022-11-24T00:13:09.392Z,15.77
2022-11-24T00:16:06.974Z,15.60
2022-11-24T00:18:56.387Z,15.93
2022-11-24T00:21:43.432Z,15.63
2022-11-24T00:24:31.196Z,18.70
2022-11-24T00:27:20.439Z,13.83
2022-11-24T00:30:09.869Z,15.87
2022-11-24T00:32:59.032Z,16.37
2022-11-24T00:35:48.967Z,16.43
2022-11-24T00:38:38.220Z,17.23
2022-11-24T00:41:28.473Z,17.27
2022-11-24T00:44:15.562Z,17.57
2022-11-24T00:47:03.073Z,14.73
2022-11-24T00:49:50.104Z,15.17
2022-11-24T00:52:37.083Z,16.20
2022-11-24T00:55:24.080Z,17.07
2022-11-24T00:58:11.511Z,18.07
2022-11-24T01:01:04.637Z,20.10
2022-11-24T01:03:52.162Z,17.00
2022-11-24T01:06:39.234Z,15.33
2022-11-24T01:09:26.866Z,15.97
2022-11-24T01:12:13.834Z,15.77
2022-11-24T01:15:01.210Z,13.10
2022-11-24T01:17:48.236Z,18.23
2022-11-24T01:20:37.506Z,17.67
2022-11-24T01:23:24.516Z,16.83
2022-11-24T01:26:14.224Z,17.63
2022-11-24T01:29:01.177Z,20.47
2022-11-24T01:31:48.153Z,13.53
2022-11-24T01:34:35.259Z,17.37
2022-11-24T01:37:22.417Z,17.50
2022-11-24T01:40:10.218Z,14.67
2022-11-24T01:42:57.252Z,14.63
2022-11-24T01:45:45.236Z,15.03
2022-11-24T01:48:43.591Z,14.60
2022-11-24T01:51:34.230Z,14.47
2022-11-24T01:54:27.106Z,15.50
2022-11-24T01:57:48.818Z,17.17
2022-11-24T02:00:37.841Z,19.83
2022-11-24T02:03:29.165Z,15.70
2022-11-24T02:06:22.531Z,16.23
2022-11-24T02:09:37.176Z,17.00
2022-11-24T02:12:26.930Z,12.80
2022-11-24T02:15:17.580Z,13.93
2022-11-24T02:18:04.711Z,13.13
2022-11-24T02:20:51.913Z,13.00
2022-11-24T02:23:59.849Z,16.80
2022-11-24T02:26:49.193Z,15.53
2022-11-24T02:29:36.189Z,14.70
2022-11-24T02:32:23.745Z,13.20
2022-11-24T02:35:12.924Z,15.67
2022-11-24T02:37:59.999Z,14.83
2022-11-24T02:40:49.125Z,16.67
2022-11-24T02:43:42.181Z,12.47
2022-11-24T02:46:29.234Z,11.77
2022-11-24T02:49:16.186Z,17.03
2022-11-24T02:52:04.224Z,14.97
2022-11-24T02:54:51.198Z,14.03
2022-11-24T02:57:38.163Z,17.00
2022-11-24T03:00:25.187Z,13.93
2022-11-24T03:03:12.393Z,14.93
2022-11-24T03:05:59.462Z,17.10
2022-11-24T03:08:46.417Z,14.60
2022-11-24T03:11:33.659Z,17.47
2022-11-24T03:14:20.656Z,14.73
2022-11-24T03:17:07.691Z,16.20
2022-11-24T03:19:54.716Z,18.27
2022-11-24T03:22:41.680Z,13.57
2022-11-24T03:25:28.754Z,16.10
2022-11-24T03:28:16.176Z,17.67
2022-11-24T03:31:03.414Z,18.93
2022-11-24T03:33:50.456Z,14.57
2022-11-24T03:36:37.412Z,14.90
2022-11-24T03:39:24.403Z,14.90
2022-11-24T03:42:15.092Z,14.33
2022-11-24T03:45:23.077Z,24.83
2022-11-24T03:48:15.530Z,17.67
2022-11-24T03:51:05.144Z,16.30
2022-11-24T03:53:54.421Z,14.67
2022-11-24T03:56:43.734Z,14.23
2022-11-24T03:59:32.986Z,14.97
2022-11-24T04:02:22.951Z,16.97
2022-11-24T04:05:12.473Z,16.23
2022-11-24T04:08:03.694Z,18.77
2022-11-24T04:10:54.626Z,16.57
2022-11-24T04:13:42.020Z,18.20
2022-11-24T04:16:29.446Z,19.23
2022-11-24T04:19:16.902Z,18.63
2022-11-24T04:22:04.321Z,17.57
2022-11-24T04:24:51.729Z,18.80
2022-11-24T04:27:39.676Z,20.87
2022-11-24T04:30:28.189Z,20.13
2022-11-24T04:33:15.398Z,16.47
2022-11-24T04:36:02.353Z,17.07
2022-11-24T04:39:24.847Z,16.23
2022-11-24T04:41:58.621Z,13.70
2022-11-24T04:44:45.645Z,21.37
2022-11-24T04:47:32.853Z,18.80
2022-11-24T04:50:20.720Z,15.60
2022-11-24T04:53:07.668Z,20.30
2022-11-24T04:55:54.625Z,16.70
2022-11-24T04:58:41.598Z,21.60
2022-11-24T05:01:29.128Z,22.17
2022-11-24T05:04:16.263Z,16.37
2022-11-24T05:07:03.954Z,18.60
2022-11-24T05:10:09.438Z,18.40
2022-11-24T05:12:59.206Z,21.33
2022-11-24T05:15:46.641Z,15.27
2022-11-24T05:18:33.944Z,19.23
2022-11-24T05:21:20.856Z,15.67
2022-11-24T05:24:10.355Z,23.40
2022-11-24T05:26:57.732Z,15.67
2022-11-24T05:29:45.156Z,19.53
2022-11-24T05:32:32.561Z,19.73
2022-11-24T05:35:20.216Z,17.90
2022-11-24T05:38:07.820Z,18.13
2022-11-24T05:40:55.186Z,19.33
2022-11-24T05:43:42.973Z,19.63
2022-11-24T05:46:30.419Z,18.23
2022-11-24T05:49:17.822Z,22.03
2022-11-24T05:52:05.268Z,17.53
2022-11-24T05:54:52.603Z,19.83
2022-11-24T05:57:39.946Z,22.80
2022-11-24T06:00:27.398Z,16.63
2022-11-24T06:03:14.920Z,17.73
2022-11-24T06:06:03.096Z,16.50
2022-11-24T06:08:50.455Z,20.03
2022-11-24T06:11:37.800Z,24.50
2022-11-24T06:14:25.123Z,20.70
2022-11-24T06:17:12.702Z,19.97
2022-11-24T06:20:00.102Z,19.17
2022-11-24T06:22:48.193Z,16.50
2022-11-24T06:25:35.533Z,19.47
2022-11-24T06:28:22.861Z,21.03
2022-11-24T06:31:11.199Z,23.13
2022-11-24T06:33:58.610Z,19.53
2022-11-24T06:36:45.950Z,17.40
2022-11-24T06:39:33.328Z,20.53
2022-11-24T06:42:21.478Z,20.90
2022-11-24T06:45:09.746Z,19.20
2022-11-24T06:47:57.261Z,21.03
2022-11-24T06:50:44.793Z,19.87
2022-11-24T06:53:32.878Z,20.90
2022-11-24T06:56:21.249Z,17.90
2022-11-24T06:59:08.610Z,19.73
2022-11-24T07:01:55.520Z,20.97
2022-11-24T07:04:42.433Z,18.83
2022-11-24T07:07:29.379Z,25.10
2022-11-24T07:10:16.769Z,23.77
2022-11-24T07:13:04.240Z,23.90
2022-11-24T07:15:51.255Z,20.93
2022-11-24T07:18:38.164Z,24.10
2022-11-24T07:21:26.395Z,22.10
2022-11-24T07:24:13.311Z,22.70
2022-11-24T07:27:00.232Z,22.37
2022-11-24T07:29:47.160Z,22.63
2022-11-24T07:32:34.228Z,18.53
2022-11-24T07:35:21.144Z,22.03
2022-11-24T07:38:08.070Z,24.20
2022-11-24T07:40:55.026Z,24.97
2022-11-24T07:43:42.345Z,19.37
2022-11-24T07:46:29.387Z,22.60
2022-11-24T07:49:16.458Z,22.53
2022-11-24T07:52:04.421Z,27.37
2022-11-24T07:54:51.367Z,22.17
2022-11-24T07:57:38.431Z,20.07
2022-11-24T08:00:25.347Z,21.97
2022-11-24T08:03:12.325Z,25.80
2022-11-24T08:09:07.411Z,25.93
2022-11-24T08:11:54.368Z,27.03
2022-11-24T08:14:41.430Z,25.73
2022-11-24T08:17:28.808Z,29.13
2022-11-24T08:20:15.855Z,23.70
2022-11-24T08:23:02.869Z,26.13
2022-11-24T08:25:54.153Z,20.73
2022-11-24T08:28:44.830Z,22.87
2022-11-24T08:31:36.026Z,22.67
2022-11-24T08:34:25.073Z,23.73
2022-11-24T08:37:12.375Z,19.73
2022-11-24T08:39:59.300Z,21.47
2022-11-24T08:42:46.245Z,20.17
2022-11-24T08:45:36.756Z,21.53
2022-11-24T08:48:28.952Z,18.37
2022-11-24T08:51:19.003Z,24.57
2022-11-24T08:54:08.691Z,18.43
2022-11-24T08:56:56.032Z,20.93
2022-11-24T08:59:43.376Z,16.80
2022-11-24T09:02:31.418Z,27.40
2022-11-24T09:05:50.233Z,19.03
2022-11-24T09:08:26.521Z,19.87
2022-11-24T09:11:14.954Z,19.70
2022-11-24T09:14:01.975Z,17.43
2022-11-24T09:16:49.057Z,18.07
2022-11-24T09:19:36.416Z,18.87
2022-11-24T09:22:23.546Z,19.20
2022-11-24T09:25:10.533Z,17.53
2022-11-24T09:27:58.574Z,17.50
2022-11-24T09:30:45.592Z,16.13
2022-11-24T09:33:33.155Z,16.87
2022-11-24T09:36:20.559Z,17.73
2022-11-24T09:39:07.878Z,19.43
2022-11-24T09:42:33.979Z,19.30
2022-11-24T09:46:06.439Z,22.63
2022-11-24T09:48:57.337Z,19.03
2022-11-24T09:51:49.165Z,35.07
2022-11-24T09:54:41.144Z,20.10
2022-11-24T09:57:37.105Z,17.33
2022-11-24T10:00:25.200Z,15.00
2022-11-24T10:03:27.922Z,15.03
2022-11-24T10:06:31.476Z,15.77
2022-11-24T10:09:38.122Z,13.50
2022-11-24T10:12:53.959Z,16.17
2022-11-24T10:15:59.016Z,14.43
2022-11-24T10:19:04.591Z,13.93
2022-11-24T10:21:54.366Z,18.00
2022-11-24T10:25:03.764Z,17.07
2022-11-24T10:28:00.360Z,12.43
2022-11-24T10:30:47.679Z,21.67
2022-11-24T10:33:35.604Z,12.73
2022-11-24T10:36:34.554Z,64.27
2022-11-24T10:39:40.783Z,24.70
2022-11-24T10:42:36.925Z,17.60
2022-11-24T10:45:26.439Z,18.73
2022-11-24T10:48:22.078Z,17.60
2022-11-24T10:51:43.659Z,36.70
2022-11-24T10:54:31.049Z,12.63
2022-11-24T10:57:28.643Z,12.03
2022-11-24T11:00:22.001Z,18.07
2022-11-24T11:03:18.645Z,15.50
2022-11-24T11:06:13.160Z,12.10
2022-11-24T11:09:06.317Z,11.90
2022-11-24T11:11:53.873Z,12.67
2022-11-24T11:14:40.865Z,12.97
2022-11-24T11:17:36.628Z,14.40
2022-11-24T11:20:35.044Z,14.33
2022-11-24T11:23:24.682Z,11.47
2022-11-24T11:26:25.532Z,12.70
2022-11-24T11:35:37.613Z,16.40
2022-11-24T11:38:28.940Z,15.10
2022-11-24T11:41:29.616Z,14.73
2022-11-24T11:44:31.523Z,11.97
2022-11-24T11:47:33.266Z,15.70
2022-11-24T11:50:27.435Z,17.90
2022-11-24T11:53:44.707Z,15.43
2022-11-24T11:56:37.380Z,17.67
2022-11-24T11:59:30.495Z,19.27
2022-11-24T12:02:21.017Z,15.50
2022-11-24T12:05:45.658Z,17.40
2022-11-24T12:09:18.613Z,15.57
2022-11-24T12:12:05.530Z,17.97
2022-11-24T12:15:13.794Z,14.90
2022-11-24T12:18:55.968Z,20.60
2022-11-24T12:22:02.259Z,17.63
2022-11-24T12:24:50.073Z,16.30
2022-11-24T12:27:55.852Z,15.53
2022-11-24T12:30:51.578Z,17.63
2022-11-24T12:33:50.319Z,20.30
2022-11-24T12:37:02.920Z,15.73
2022-11-24T12:40:01.583Z,18.23
2022-11-24T12:43:11.661Z,18.23
2022-11-24T12:46:23.368Z,16.60
2022-11-24T12:49:32.268Z,17.63
2022-11-24T12:52:37.546Z,13.53
2022-11-24T12:55:25.394Z,14.27
2022-11-24T12:58:22.511Z,18.23
2022-11-24T13:01:21.324Z,21.70
2022-11-24T13:04:32.894Z,20.47
2022-11-24T13:07:23.324Z,20.67
2022-11-24T13:10:53.498Z,18.63
2022-11-24T13:14:07.595Z,15.97
2022-11-24T13:17:28.542Z,16.40
2022-11-24T13:20:21.760Z,19.33
2022-11-24T13:23:24.291Z,14.13
2022-11-24T13:26:27.611Z,16.83
2022-11-24T13:29:32.969Z,13.77
2022-11-24T13:32:20.976Z,21.43
2022-11-24T13:35:15.790Z,13.57
2022-11-24T13:38:05.170Z,17.40
2022-11-24T13:41:20.971Z,20.90
2022-11-24T13:44:17.013Z,18.30
2022-11-24T13:47:25.410Z,18.67
2022-11-24T13:50:18.282Z,12.90
2022-11-24T13:53:15.550Z,15.57
2022-11-24T13:56:17.189Z,16.27
2022-11-24T13:59:18.599Z,20.07
2022-11-24T14:02:21.544Z,13.50
2022-11-24T14:05:14.567Z,13.00
2022-11-24T14:08:02.394Z,16.67
2022-11-24T14:10:50.495Z,16.07
2022-11-24T14:13:37.496Z,20.07
2022-11-24T14:16:24.794Z,15.90
2022-11-24T14:19:18.312Z,17.50
2022-11-24T14:22:05.409Z,19.63
2022-11-24T14:24:55.149Z,17.77
2022-11-24T14:27:42.128Z,29.70
2022-11-24T14:30:29.320Z,30.87
2022-11-24T14:33:18.848Z,23.77
2022-11-24T14:36:05.931Z,25.30
2022-11-24T14:38:52.869Z,26.43
2022-11-24T14:41:40.719Z,23.43
2022-11-24T14:44:46.815Z,30.77
2022-11-24T14:47:44.993Z,23.03
2022-11-24T14:50:32.095Z,26.37
2022-11-24T14:53:26.201Z,20.03
2022-11-24T14:56:34.427Z,22.47
2022-11-24T14:59:24.619Z,18.13
2022-11-24T15:02:41.943Z,27.57
2022-11-24T15:05:52.125Z,22.70
2022-11-24T15:08:46.939Z,24.67
2022-11-24T15:11:34.975Z,23.10
2022-11-24T15:14:51.939Z,20.30
2022-11-24T15:17:45.850Z,18.57
2022-11-24T15:20:53.058Z,18.90
2022-11-24T15:23:42.151Z,17.97
2022-11-24T15:26:36.857Z,19.13
2022-11-24T15:29:28.938Z,21.33
2022-11-24T15:32:16.597Z,22.10
2022-11-24T15:35:04.480Z,20.50
2022-11-24T15:37:52.060Z,15.27
2022-11-24T15:40:39.892Z,29.20
2022-11-24T15:43:33.408Z,27.33
2022-11-24T15:46:20.847Z,17.43
2022-11-24T15:49:08.290Z,17.00
2022-11-24T15:51:55.641Z,20.47
2022-11-24T15:54:42.995Z,33.60
2022-11-24T15:57:30.472Z,23.37
2022-11-24T16:00:18.953Z,14.43
2022-11-24T16:03:38.417Z,22.40
2022-11-24T16:06:19.124Z,14.10
2022-11-24T16:09:17.406Z,16.83
2022-11-24T16:12:05.071Z,14.90
2022-11-24T16:14:52.451Z,18.13
2022-11-24T16:17:40.010Z,19.00
2022-11-24T16:20:27.406Z,22.67
2022-11-24T16:23:14.948Z,17.73
2022-11-24T16:26:04.205Z,19.00
2022-11-24T16:28:51.602Z,21.40
2022-11-24T16:31:38.984Z,22.63
2022-11-24T16:34:26.448Z,20.63
2022-11-24T16:37:13.802Z,21.87
2022-11-24T16:40:02.443Z,22.00
2022-11-24T16:42:50.257Z,18.87
2022-11-24T16:45:40.855Z,23.07
2022-11-24T16:48:35.968Z,16.83
2022-11-24T16:51:24.314Z,15.17
2022-11-24T16:54:11.676Z,19.50
2022-11-24T16:56:58.799Z,17.80
2022-11-24T16:59:48.560Z,19.60
2022-11-24T17:02:35.812Z,17.93
2022-11-24T17:05:22.763Z,15.87
2022-11-24T17:08:09.734Z,20.43
2022-11-24T17:10:56.691Z,22.80
2022-11-24T17:13:45.491Z,23.70
2022-11-24T17:16:32.518Z,25.27
2022-11-24T17:19:20.743Z,21.77
2022-11-24T17:22:07.683Z,20.07
2022-11-24T17:24:54.745Z,22.33
2022-11-24T17:27:41.722Z,16.33
2022-11-24T17:30:28.631Z,23.95
2022-11-24T17:33:15.634Z,15.67
2022-11-24T17:36:04.484Z,13.47
2022-11-24T17:38:51.595Z,14.43
2022-11-24T17:41:38.844Z,15.03
2022-11-24T17:44:26.743Z,12.97
2022-11-24T17:47:14.935Z,16.37
2022-11-24T17:50:02.132Z,13.07
2022-11-24T17:52:49.058Z,13.93
2022-11-24T17:55:36.003Z,23.87
2022-11-24T17:58:22.994Z,11.47
2022-11-24T18:01:11.503Z,13.97
2022-11-24T18:03:59.110Z,15.60
2022-11-24T18:06:47.610Z,14.87
2022-11-24T18:09:34.960Z,14.20
2022-11-24T18:12:22.356Z,11.87
2022-11-24T18:15:09.858Z,16.50
2022-11-24T18:17:56.821Z,16.87
2022-11-24T18:20:43.757Z,16.70
2022-11-24T18:23:31.835Z,16.60
2022-11-24T18:26:19.333Z,20.73
2022-11-24T18:29:06.467Z,18.80
2022-11-24T18:31:53.513Z,19.27
2022-11-24T18:34:40.543Z,40.70
2022-11-24T18:37:32.259Z,21.90
2022-11-24T18:40:19.275Z,46.67
2022-11-24T18:43:06.694Z,53.37
2022-11-24T18:45:54.018Z,59.43
2022-11-24T18:48:42.415Z,38.33
2022-11-24T18:51:29.913Z,68.53
2022-11-24T18:54:16.831Z,62.13
2022-11-24T18:57:03.984Z,56.47
2022-11-24T18:59:50.929Z,46.10
2022-11-24T19:02:37.963Z,21.73
2022-11-24T19:05:25.009Z,28.90
2022-11-24T19:08:11.973Z,76.87
2022-11-24T19:10:59.478Z,80.57
2022-11-24T19:13:47.668Z,105.13
2022-11-24T19:16:35.647Z,123.00
2022-11-24T19:19:22.697Z,77.03
2022-11-24T19:22:09.660Z,60.37
2022-11-24T19:24:56.605Z,41.23
2022-11-24T19:27:43.808Z,65.23
2022-11-24T19:30:30.829Z,67.03
2022-11-24T19:33:18.819Z,35.13
2022-11-24T19:36:15.344Z,18.43
2022-11-24T19:39:04.791Z,39.97
2022-11-24T19:41:53.513Z,21.77
2022-11-24T19:44:40.508Z,9.83
2022-11-24T19:47:28.419Z,12.17
2022-11-24T19:50:15.394Z,33.20
2022-11-24T19:53:02.352Z,19.67
2022-11-24T19:55:49.367Z,16.90
2022-11-24T19:58:36.975Z,12.73
2022-11-24T20:01:30.220Z,10.53
2022-11-24T20:04:17.449Z,13.67
2022-11-24T20:07:04.435Z,13.70
2022-11-24T20:09:51.405Z,18.47
2022-11-24T20:12:38.362Z,21.37
2022-11-24T20:15:25.308Z,51.43
2022-11-24T20:18:12.365Z,14.77
2022-11-24T20:21:09.064Z,18.07
2022-11-24T20:24:03.807Z,12.77
2022-11-24T20:26:58.856Z,20.67
2022-11-24T20:29:47.829Z,25.53
2022-11-24T20:32:36.053Z,31.30
2022-11-24T20:35:22.993Z,23.27
2022-11-24T20:41:17.514Z,29.50
2022-11-24T20:44:10.417Z,49.17
2022-11-24T20:47:00.276Z,39.63
2022-11-24T20:49:49.151Z,24.80
2022-11-24T20:52:36.079Z,24.37
2022-11-24T20:55:23.047Z,16.87
2022-11-24T20:58:10.003Z,25.13
2022-11-24T21:01:03.402Z,24.33
2022-11-24T21:04:00.182Z,35.87
2022-11-24T21:06:47.433Z,14.33
2022-11-24T21:09:34.396Z,23.47
2022-11-24T21:12:22.490Z,27.93
2022-11-24T21:15:09.709Z,16.47
2022-11-24T21:17:56.668Z,15.70
2022-11-24T21:20:43.874Z,22.13
2022-11-24T21:23:31.257Z,15.13
2022-11-24T21:26:19.551Z,16.47
2022-11-24T21:29:07.732Z,19.23
2022-11-24T21:31:54.897Z,28.03
2022-11-24T21:34:41.921Z,16.97
2022-11-24T21:37:28.856Z,22.80
2022-11-24T21:40:16.311Z,17.83
2022-11-24T21:43:03.625Z,22.60
2022-11-24T21:45:50.587Z,25.37
2022-11-24T21:48:38.562Z,19.87
2022-11-24T21:51:25.553Z,19.67
2022-11-24T21:54:12.499Z,16.57
2022-11-24T21:56:59.463Z,13.67
2022-11-24T21:59:46.379Z,15.00
2022-11-24T22:02:33.409Z,9.20
2022-11-24T22:05:20.367Z,13.73
2022-11-24T22:08:07.409Z,10.87
2022-11-24T22:11:00.493Z,12.23
2022-11-24T22:13:48.039Z,8.47
2022-11-24T22:16:35.079Z,10.27
2022-11-24T22:19:22.093Z,8.40
2022-11-24T22:22:09.022Z,12.03
2022-11-24T22:24:56.104Z,11.60
2022-11-24T22:27:43.044Z,8.97
2022-11-24T22:30:30.021Z,13.43
2022-11-24T22:33:16.990Z,9.70
2022-11-24T22:36:04.652Z,9.43
2022-11-24T22:38:56.547Z,11.30
2022-11-24T22:41:43.477Z,10.57
2022-11-24T22:44:30.419Z,11.93
2022-11-24T22:47:17.559Z,15.03
2022-11-24T22:50:05.198Z,16.57
2022-11-24T22:52:52.119Z,37.53
2022-11-24T22:55:39.038Z,18.33
2022-11-24T22:58:26.003Z,14.50
2022-11-24T23:01:15.487Z,17.97
2022-11-24T23:04:03.637Z,19.63
2022-11-24T23:06:51.050Z,27.80
2022-11-24T23:09:38.215Z,10.43
2022-11-24T23:12:25.169Z,11.73
2022-11-24T23:15:12.129Z,14.03
2022-11-24T23:17:59.045Z,22.10
2022-11-24T23:20:46.043Z,29.17
2022-11-24T23:23:33.575Z,20.63
2022-11-24T23:26:26.517Z,19.13
2022-11-24T23:29:13.579Z,21.43
2022-11-24T23:32:00.626Z,24.33
2022-11-24T23:34:47.568Z,38.40
2022-11-24T23:38:00.044Z,45.97
2022-11-24T23:40:41.372Z,56.50
2022-11-24T23:43:28.513Z,54.10
2022-11-24T23:46:20.253Z,75.50
2022-11-24T23:49:07.380Z,30.83
2022-11-24T23:51:54.318Z,17.50
2022-11-24T23:57:46.082Z,18.57
